Time;durP1;ratioP1;P1;durP2;ratioP2;P2;SDS_P1;SDS_P2;PMS_P1;PMS_P2;Temp;Humidity;BMP_temperature;BMP_pressure;BME280_temperature;BME280_humidity;BME280_pressure;Samples;Min_cycle;Max_cycle;Signal;HPM_P1;HPM_P2
2024/04/01 00:00:44;;;;;;;5.75;1.08;;;;;;;17.00;38.33;92050.78;4917092;29;20210;-90
2024/04/01 00:03:11;;;;;;;3.17;0.98;;;;;;;16.98;38.21;92029.53;4932029;29;20239;-91
2024/04/01 00:05:43;;;;;;;4.57;0.98;;;;;;;17.00;38.31;92022.22;4931319;29;20239;-91
2024/04/01 00:08:41;;;;;;;5.47;1.13;;;;;;;17.08;38.35;92035.22;4931195;29;20212;-91
2024/04/01 00:11:11;;;;;;;3.13;1.10;;;;;;;17.10;37.76;92012.31;4931647;29;20210;-91
2024/04/01 00:13:45;;;;;;;2.67;1.10;;;;;;;17.10;38.20;92003.75;4931794;29;20198;-90
2024/04/01 00:16:18;;;;;;;1.58;0.80;;;;;;;17.10;38.09;91995.94;4930697;29;20301;-90
2024/04/01 00:18:55;;;;;;;2.78;1.17;;;;;;;17.11;38.43;91995.66;4930701;29;20211;-91
2024/04/01 00:21:28;;;;;;;2.65;0.95;;;;;;;17.10;38.14;91985.56;4930692;29;20208;-91
2024/04/01 00:24:07;;;;;;;2.95;1.40;;;;;;;17.06;37.96;91987.22;4931530;29;20208;-91
2024/04/01 00:26:44;;;;;;;4.18;1.00;;;;;;;17.04;38.15;91994.56;4930658;29;20237;-90
2024/04/01 00:29:19;;;;;;;2.08;0.73;;;;;;;17.07;38.29;92023.31;4931508;29;20202;-90
2024/04/01 00:31:53;;;;;;;1.70;0.70;;;;;;;17.10;38.40;92016.75;4937092;29;20206;-91
2024/04/01 00:34:33;;;;;;;2.38;1.02;;;;;;;17.02;38.10;92012.28;4952193;28;20209;-91
2024/04/01 00:37:10;;;;;;;2.40;0.73;;;;;;;17.05;38.37;92012.44;4939709;28;20213;-90
2024/04/01 00:39:44;;;;;;;0.90;0.68;;;;;;;17.11;38.46;92005.28;4942366;29;20197;-90
2024/04/01 00:42:26;;;;;;;2.15;0.90;;;;;;;17.03;38.79;92006.78;4950978;29;20200;-91
2024/04/01 00:44:56;;;;;;;1.27;0.73;;;;;;;17.01;38.44;92011.50;4949567;28;20603;-90
2024/04/01 00:47:28;;;;;;;4.45;0.90;;;;;;;17.03;38.52;91998.22;4949955;29;20229;-91
2024/04/01 00:50:16;;;;;;;2.53;1.02;;;;;;;17.08;38.35;91985.09;4934417;29;20223;-90
2024/04/01 00:52:54;;;;;;;1.85;0.90;;;;;;;17.07;38.74;91971.31;4934566;29;20615;-90
2024/04/01 00:55:32;;;;;;;1.67;0.80;;;;;;;17.08;38.42;91954.66;4934087;29;20225;-91
2024/04/01 00:58:30;;;;;;;;;;;;;;;;;;;;;
2024/04/01 01:01:03;;;;;;;2.15;0.80;;;;;;;17.14;38.44;91919.63;4934449;29;20209;-90
2024/04/01 01:03:29;;;;;;;2.58;0.82;;;;;;;17.14;38.50;91911.06;4934256;29;20291;-90
2024/04/01 01:06:13;;;;;;;;;;;;;;;;;;;;;
2024/04/01 01:08:59;;;;;;;4.50;0.90;;;;;;;17.08;38.32;91883.72;4934047;29;20579;-90
2024/04/01 01:11:39;;;;;;;1.85;0.70;;;;;;;17.10;38.65;91876.41;4934475;29;20284;-90
2024/04/01 01:14:34;;;;;;;0.90;0.63;;;;;;;17.15;38.37;91892.56;4916190;29;20604;-90
2024/04/01 01:17:14;;;;;;;2.40;0.70;;;;;;;17.15;38.23;91918.56;4923824;29;20208;-90
2024/04/01 01:19:40;;;;;;;1.90;0.90;;;;;;;17.11;38.52;91896.13;4933573;29;20679;-90
2024/04/01 01:22:35;;;;;;;2.10;0.77;;;;;;;17.04;38.43;91878.38;4931921;29;20209;-91
2024/04/01 01:25:03;;;;;;;2.40;0.85;;;;;;;16.99;38.37;91893.34;4932841;29;20299;-89
2024/04/01 01:27:40;;;;;;;1.75;0.63;;;;;;;16.99;38.40;91911.53;4933761;29;20291;-89
2024/04/01 01:30:22;;;;;;;1.70;0.63;;;;;;;16.86;38.89;91884.66;4914996;29;20213;-90
2024/04/01 01:32:57;;;;;;;3.35;0.80;;;;;;;16.81;38.87;91867.38;4922038;29;20208;-91
2024/04/01 01:35:29;;;;;;;1.33;0.70;;;;;;;16.81;38.96;91877.75;4944978;29;20784;-91
2024/04/01 01:38:09;;;;;;;1.02;0.75;;;;;;;16.80;38.96;91872.88;4945035;29;20216;-91
2024/04/01 01:40:42;;;;;;;4.20;0.80;;;;;;;16.77;38.88;91845.66;4925256;29;20300;-91
2024/04/01 01:43:33;;;;;;;1.38;0.70;;;;;;;16.73;39.07;91857.75;4934091;29;20213;-90
2024/04/01 01:46:03;;;;;;;4.70;0.93;;;;;;;16.81;39.11;91858.81;4930231;29;20229;-90
2024/04/01 01:48:36;;;;;;;4.40;1.23;;;;;;;16.86;38.97;91858.66;4933791;29;20687;-90
2024/04/01 01:51:20;;;;;;;2.03;0.75;;;;;;;16.91;38.74;91876.72;4933826;29;20217;-90
2024/04/01 01:59:49;;;;;;;2.67;0.85;;;;;;;16.77;39.07;91896.84;4925059;29;20630;-90
2024/04/01 02:02:28;;;;;;;3.03;1.05;;;;;;;16.75;39.22;91891.97;4901681;29;20206;-90
2024/04/01 02:05:13;;;;;;;2.28;0.70;;;;;;;16.66;39.39;91891.19;4932368;29;20297;-91
2024/04/01 02:08:04;;;;;;;2.15;0.75;;;;;;;16.65;39.36;91904.50;4932942;29;20217;-90
2024/04/01 02:10:37;;;;;;;1.25;0.70;;;;;;;16.64;39.66;91913.34;4931698;29;20225;-88
2024/04/01 02:13:11;;;;;;;3.13;1.05;;;;;;;16.53;39.42;91892.84;4933226;29;20194;-90
2024/04/01 02:15:45;;;;;;;1.63;0.70;;;;;;;16.49;39.79;91888.56;4932543;29;20715;-89
2024/04/01 02:18:21;;;;;;;6.28;0.88;;;;;;;16.48;39.58;91853.28;4932916;29;20679;-89
2024/04/01 02:21:23;;;;;;;;;;;;;;;;;;;;;
2024/04/01 02:24:17;;;;;;;3.97;0.90;;;;;;;16.37;39.52;91807.88;4932954;29;20208;-90
2024/04/01 02:27:04;;;;;;;3.45;1.00;;;;;;;16.30;39.56;91810.94;4931289;29;20229;-90
2024/04/01 02:29:48;;;;;;;3.40;0.90;;;;;;;16.32;39.38;91823.63;4939136;29;20213;-90
2024/04/01 02:32:59;;;;;;;3.17;1.10;;;;;;;16.33;39.41;91825.91;4937873;29;20197;-90
2024/04/01 02:39:16;;;;;;;4.32;1.00;;;;;;;16.28;39.34;91792.31;4922325;29;20201;-90
2024/04/01 02:41:45;;;;;;;2.15;0.90;;;;;;;16.28;39.05;91794.16;4913457;29;20285;-90
2024/04/01 02:44:38;;;;;;;3.38;0.90;;;;;;;16.27;39.03;91790.03;4932283;29;20282;-90
2024/04/01 02:47:18;;;;;;;2.40;1.20;;;;;;;16.35;39.20;91812.66;4932214;29;20286;-90
2024/04/01 02:49:48;;;;;;;4.70;1.05;;;;;;;16.43;38.72;91824.84;4913909;29;20301;-89
2024/04/01 02:53:12;;;;;;;4.57;0.95;;;;;;;16.48;38.60;91816.94;4913880;29;20203;-90
2024/04/01 02:55:44;;;;;;;3.38;0.80;;;;;;;16.48;38.70;91783.16;4894471;29;20230;-91
2024/04/01 02:58:23;;;;;;;3.55;0.80;;;;;;;16.47;39.06;91795.38;4921432;29;20213;-91
2024/04/01 03:04:01;;;;;;;4.00;1.27;;;;;;;16.40;38.91;91770.94;4927754;29;20210;-90
2024/04/01 03:09:46;;;;;;;3.72;1.30;;;;;;;16.40;38.35;91708.63;4928848;29;20209;-90
2024/04/01 03:12:32;;;;;;;3.80;1.17;;;;;;;16.35;38.69;91683.63;4931632;29;20194;-90
2024/04/01 03:15:19;;;;;;;4.90;1.15;;;;;;;16.27;38.63;91699.97;4930383;29;20229;-91
2024/04/01 03:17:52;;;;;;;1.77;1.00;;;;;;;16.26;38.52;91693.25;4931882;29;20212;-90
2024/04/01 03:20:47;;;;;;;3.35;1.00;;;;;;;16.32;38.64;91715.38;4931384;29;20203;-92
2024/04/01 03:26:58;;;;;;;1.48;1.00;;;;;;;16.66;38.38;91748.38;4931063;29;20226;-91
2024/04/01 03:29:48;;;;;;;6.32;0.90;;;;;;;16.65;37.84;91723.47;4931728;29;20233;-90
2024/04/01 03:32:19;;;;;;;3.80;1.30;;;;;;;16.50;37.68;91684.97;4930552;29;20237;-91
2024/04/01 03:34:57;;;;;;;3.10;1.15;;;;;;;16.50;37.89;91684.97;4932079;29;20233;-89
2024/04/01 03:37:48;;;;;;;5.55;1.15;;;;;;;16.46;37.91;91676.28;4931692;29;20229;-89
2024/04/01 03:40:23;;;;;;;1.30;1.00;;;;;;;16.47;38.29;91667.41;4931836;29;20213;-89
2024/04/01 03:46:22;;;;;;;2.83;0.80;;;;;;;16.32;37.86;91681.63;4918015;29;20225;-91
2024/04/01 03:49:04;;;;;;;3.00;1.13;;;;;;;16.29;38.11;91697.81;4931187;29;20209;-89
2024/04/01 03:51:40;;;;;;;2.58;1.15;;;;;;;16.31;37.83;91694.91;4931841;29;20660;-90
2024/04/01 03:54:37;;;;;;;3.35;1.17;;;;;;;16.26;38.38;91692.47;4931570;29;20739;-91
2024/04/01 03:57:05;;;;;;;4.70;0.95;;;;;;;16.22;38.49;91702.69;4931232;29;20209;-89
2024/04/01 03:59:32;;;;;;;5.05;1.20;;;;;;;16.21;38.47;91703.75;4931303;29;20198;-90
2024/04/01 04:02:09;;;;;;;2.95;0.90;;;;;;;16.19;38.62;91726.66;4931156;29;20208;-90
2024/04/01 04:06:24;;;;;;;1.77;0.90;;;;;;;16.13;38.53;91705.31;4930149;29;20237;-90
2024/04/01 04:07:48;;;;;;;5.13;1.00;;;;;;;16.05;38.84;91726.06;4898016;29;20237;-90
2024/04/01 04:10:42;;;;;;;3.92;1.23;;;;;;;16.04;38.87;91733.06;4931811;29;20574;-90
2024/04/01 04:13:11;;;;;;;2.67;1.20;;;;;;;16.04;39.14;91734.91;4931374;29;20213;-90
2024/04/01 04:15:46;;;;;;;2.22;1.10;;;;;;;16.09;38.80;91753.69;4931349;29;20241;-89
2024/04/01 04:18:46;;;;;;;5.38;1.25;;;;;;;16.01;39.17;91754.44;4931325;29;20204;-89
2024/04/01 04:21:14;;;;;;;3.03;1.10;;;;;;;16.03;39.14;91746.34;4922391;29;20207;-90
2024/04/01 04:24:06;;;;;;;2.92;1.13;;;;;;;15.98;39.31;91751.66;4939828;29;20197;-90
2024/04/01 04:26:56;;;;;;;4.65;1.35;;;;;;;15.92;39.75;91758.09;4934831;29;20229;-89
2024/04/01 04:29:37;;;;;;;1.73;0.90;;;;;;;15.94;39.54;91790.44;4934916;29;20260;-89
2024/04/01 04:32:19;;;;;;;7.55;1.15;;;;;;;15.99;39.45;91805.84;4935659;29;20227;-90
2024/04/01 04:35:13;;;;;;;3.28;1.25;;;;;;;15.80;39.86;91807.94;4933938;29;20236;-90
2024/04/01 04:37:47;;;;;;;1.63;0.88;;;;;;;15.80;39.97;91821.66;4934635;29;20700;-90
2024/04/01 04:40:19;;;;;;;3.75;1.10;;;;;;;15.76;39.95;91830.38;4934674;29;20207;-88
2024/04/01 04:42:51;;;;;;;3.30;1.08;;;;;;;15.76;39.93;91840.72;4935170;29;20194;-90
2024/04/01 04:45:32;;;;;;;3.97;1.10;;;;;;;15.72;40.19;91845.75;4934436;29;20233;-91
2024/04/01 04:48:08;;;;;;;2.83;1.05;;;;;;;15.75;40.21;91845.16;4934824;29;20313;-90
2024/04/01 04:51:11;;;;;;;2.45;0.80;;;;;;;15.79;39.90;91847.91;4934990;29;20232;-89
2024/04/01 04:53:38;;;;;;;2.70;1.17;;;;;;;15.90;40.31;91862.13;4914061;29;20210;-89
2024/04/01 04:59:10;;;;;;;2.38;1.10;;;;;;;16.08;39.97;91857.75;4928114;29;20695;-88
2024/04/01 05:01:53;;;;;;;4.57;1.17;;;;;;;16.18;39.82;91844.50;4934528;29;20667;-90
2024/04/01 05:04:46;;;;;;;4.82;1.40;;;;;;;16.15;39.94;91847.72;4934624;29;20206;-90
2024/04/01 05:07:29;;;;;;;2.70;0.90;;;;;;;16.06;39.91;91844.31;4933748;29;20237;-90
2024/04/01 05:10:11;;;;;;;2.80;1.02;;;;;;;16.04;40.05;91851.63;4934652;29;20206;-91
2024/04/01 05:12:38;;;;;;;3.13;1.00;;;;;;;15.99;40.19;91842.16;4933785;29;20248;-89
2024/04/01 05:15:06;;;;;;;7.15;1.20;;;;;;;15.86;40.48;91856.78;4933767;29;20352;-90
2024/04/01 05:17:36;;;;;;;4.07;1.00;;;;;;;15.78;40.88;91873.06;4933985;29;20202;-91
2024/04/01 05:20:13;;;;;;;2.90;0.93;;;;;;;15.75;40.93;91859.94;4943674;29;20213;-91
2024/04/01 05:22:39;;;;;;;3.72;1.15;;;;;;;15.73;40.81;91875.81;4917404;29;20208;-91
2024/04/01 05:25:06;;;;;;;5.65;1.60;;;;;;;15.70;41.19;91867.84;4930598;29;20288;-90
2024/04/01 05:27:35;;;;;;;3.38;1.00;;;;;;;15.77;40.89;91870.78;4934689;29;20786;-89
2024/04/01 05:30:04;;;;;;;4.70;1.13;;;;;;;15.83;40.88;91880.72;4935309;29;20660;-89
2024/04/01 05:32:30;;;;;;;3.42;1.10;;;;;;;15.86;41.00;91876.75;4934938;29;20269;-89
2024/04/01 05:34:56;;;;;;;3.47;1.10;;;;;;;15.87;41.07;91901.63;4933111;29;20228;-89
2024/04/01 05:37:22;;;;;;;1.42;0.90;;;;;;;15.85;41.19;91901.16;4934297;29;20205;-89
2024/04/01 05:39:51;;;;;;;5.70;1.17;;;;;;;15.84;41.19;91915.19;4933042;29;20209;-88
2024/04/01 05:42:17;;;;;;;5.68;1.02;;;;;;;15.86;41.23;91910.47;4925777;29;20217;-89
2024/04/01 05:44:44;;;;;;;2.88;1.20;;;;;;;15.94;41.19;91917.56;4934354;29;20307;-89
2024/04/01 05:47:11;;;;;;;1.90;1.10;;;;;;;16.06;41.27;91932.53;4933957;29;20269;-88
2024/04/01 05:49:38;;;;;;;3.20;1.20;;;;;;;16.14;41.04;91934.41;4934109;29;20216;-90
2024/04/01 05:52:04;;;;;;;2.58;1.00;;;;;;;16.16;41.36;91935.63;4934334;29;20201;-89
2024/04/01 05:54:31;;;;;;;2.45;0.80;;;;;;;16.05;41.27;91912.84;4934018;29;20197;-89
2024/04/01 05:57:02;;;;;;;2.05;1.23;;;;;;;15.91;41.55;91923.31;4932844;29;20225;-89
2024/04/01 05:59:44;;;;;;;3.22;1.15;;;;;;;15.80;41.68;91922.03;4934237;29;20209;-90
2024/04/01 06:02:14;;;;;;;3.80;1.27;;;;;;;15.77;41.68;91935.63;4934375;29;20580;-89
2024/04/01 06:04:47;;;;;;;2.17;0.95;;;;;;;15.71;42.14;91947.94;4934530;29;20225;-91
2024/04/01 06:07:13;;;;;;;2.05;1.00;;;;;;;15.63;42.51;91955.66;4933524;29;20225;-88
2024/04/01 06:09:48;;;;;;;3.85;1.10;;;;;;;15.69;42.57;91963.03;4934397;29;20217;-89
2024/04/01 06:12:15;;;;;;;4.45;1.13;;;;;;;15.72;42.43;91959.09;4933130;29;20288;-89
2024/04/01 06:14:41;;;;;;;4.07;1.10;;;;;;;15.79;42.42;91967.19;4940111;28;20232;-89
2024/04/01 06:17:07;;;;;;;2.92;0.80;;;;;;;15.85;42.50;91979.75;4937985;29;20232;-90
2024/04/01 06:19:35;;;;;;;3.55;1.15;;;;;;;16.00;42.13;91991.56;4933510;29;20774;-89
2024/04/01 06:22:03;;;;;;;3.78;1.10;;;;;;;16.09;42.13;91995.00;4932778;29;20212;-90
2024/04/01 06:24:35;;;;;;;4.40;1.10;;;;;;;16.05;42.35;91990.69;4933248;29;20286;-90
2024/04/01 06:27:01;;;;;;;4.35;1.60;;;;;;;16.08;42.30;91983.06;4933647;29;20350;-89
2024/04/01 06:29:28;;;;;;;4.85;2.13;;;;;;;16.03;42.58;91990.97;4932205;29;20704;-90
2024/04/01 06:31:54;;;;;;;2.40;1.30;;;;;;;16.04;42.51;92002.88;4933154;29;20221;-90
2024/04/01 06:34:20;;;;;;;3.83;1.23;;;;;;;16.14;42.51;92035.63;4933313;29;20281;-89
2024/04/01 06:36:52;;;;;;;2.60;0.95;;;;;;;16.17;42.99;92040.97;4933185;29;20233;-89
2024/04/01 06:39:17;;;;;;;6.88;1.17;;;;;;;16.06;42.92;92033.72;4933201;29;20204;-89
2024/04/01 06:41:51;;;;;;;4.78;0.93;;;;;;;16.12;42.98;92027.38;4933408;29;20202;-88
2024/04/01 06:44:18;;;;;;;3.42;1.08;;;;;;;16.22;42.86;92027.09;4932155;29;20228;-89
2024/04/01 06:46:48;;;;;;;4.47;1.17;;;;;;;16.36;42.30;92011.44;4932466;29;20209;-89
2024/04/01 06:49:14;;;;;;;3.20;0.93;;;;;;;16.51;42.53;91996.25;4932676;29;20205;-89
2024/04/01 06:51:40;;;;;;;1.83;1.10;;;;;;;16.70;42.79;92016.78;4932407;29;20202;-89
2024/04/01 06:54:08;;;;;;;2.55;1.05;;;;;;;16.84;43.17;92073.81;4932707;29;20228;-89
2024/04/01 06:56:33;;;;;;;1.80;1.00;;;;;;;16.97;42.34;92104.13;4932198;29;20221;-88
2024/04/01 06:59:00;;;;;;;2.60;0.98;;;;;;;16.90;42.23;92107.19;4932702;29;20212;-89
2024/04/01 07:01:25;;;;;;;4.50;1.00;;;;;;;16.97;42.35;92119.72;4929542;29;20201;-89
2024/04/01 07:03:52;;;;;;;3.38;0.90;;;;;;;17.05;42.35;92124.19;4931512;29;20206;-88
2024/04/01 07:06:20;;;;;;;2.45;0.90;;;;;;;17.07;42.42;92132.47;4931548;29;20252;-89
2024/04/01 07:08:47;;;;;;;1.42;0.80;;;;;;;17.13;42.53;92128.63;4932444;29;20225;-89
2024/04/01 07:11:14;;;;;;;1.58;0.90;;;;;;;17.18;42.35;92135.53;4939652;29;20213;-89
2024/04/01 07:13:40;;;;;;;2.05;1.00;;;;;;;17.20;42.66;92156.81;4946494;29;20211;-89
2024/04/01 07:16:06;;;;;;;1.55;0.90;;;;;;;17.23;43.18;92190.75;4932612;29;20229;-88
2024/04/01 07:18:35;;;;;;;2.10;0.93;;;;;;;17.25;42.96;92206.06;4931772;29;20615;-89
2024/04/01 07:21:01;;;;;;;0.88;0.77;;;;;;;17.26;43.14;92234.38;4931093;29;20271;-89
2024/04/01 07:23:27;;;;;;;1.17;0.80;;;;;;;17.24;43.59;92295.53;4931661;29;20821;-91
2024/04/01 07:25:53;;;;;;;1.98;0.68;;;;;;;17.17;43.93;92321.94;4932214;29;20598;-92
2024/04/01 07:28:20;;;;;;;3.08;0.82;;;;;;;17.02;43.64;92340.50;4931006;29;20224;-88
2024/04/01 07:30:46;;;;;;;3.28;0.90;;;;;;;16.84;44.78;92417.53;4932063;29;20206;-89
2024/04/01 07:33:14;;;;;;;7.80;1.20;;;;;;;16.36;49.16;92634.50;4927073;29;20213;-90
2024/04/01 07:35:40;;;;;;;7.50;1.15;;;;;;;16.11;52.17;92805.13;4928242;29;20221;-90
2024/04/01 07:38:11;;;;;;;5.88;0.95;;;;;;;15.93;54.64;92908.88;4932011;29;20213;-89
2024/04/01 07:40:41;;;;;;;1.90;0.98;;;;;;;15.41;57.06;93039.97;4932081;29;20197;-90
2024/04/01 07:43:10;;;;;;;2.00;0.98;;;;;;;15.24;57.79;93092.16;4931957;29;20205;-87
2024/04/01 07:45:50;;;;;;;1.92;1.00;;;;;;;15.10;58.08;93140.44;4947993;23;20278;-89
2024/04/01 07:48:19;;;;;;;2.17;0.75;;;;;;;14.94;58.90;93183.75;4945188;28;20228;-90
2024/04/01 07:50:49;;;;;;;2.15;0.95;;;;;;;14.90;58.78;93218.97;4949586;28;20300;-90
2024/04/01 07:53:46;;;;;;;1.00;0.55;;;;;;;14.77;58.58;93194.38;4956048;28;20312;-91
2024/04/01 07:56:46;;;;;;;2.30;0.73;;;;;;;14.65;56.11;93143.88;4950754;23;20297;-90
2024/04/01 07:59:12;;;;;;;2.13;0.73;;;;;;;14.39;56.14;93105.06;4905972;29;20315;-90
2024/04/01 08:02:00;;;;;;;1.83;0.60;;;;;;;14.09;56.12;93123.16;4935953;29;20209;-90
2024/04/01 08:04:36;;;;;;;0.82;0.50;;;;;;;13.99;56.19;93142.06;4935983;29;20206;-90
2024/04/01 08:07:35;;;;;;;1.30;0.40;;;;;;;13.76;56.63;93169.16;4936173;29;20208;-89
2024/04/01 08:13:05;;;;;;;0.47;0.45;;;;;;;13.51;58.31;93306.09;4935535;29;20261;-90
2024/04/01 08:15:41;;;;;;;0.90;0.43;;;;;;;13.70;58.66;93324.53;4917395;29;20221;-90
2024/04/01 08:18:20;;;;;;;1.08;0.40;;;;;;;13.50;58.78;93353.63;4938045;29;20201;-90
2024/04/01 08:21:09;;;;;;;0.40;0.40;;;;;;;13.41;58.82;93375.81;4935219;29;20234;-90
2024/04/01 08:26:58;;;;;;;0.38;0.38;;;;;;;12.97;60.22;93435.34;4935781;29;20304;-90
2024/04/01 08:30:03;;;;;;;1.30;0.38;;;;;;;12.73;61.74;93511.53;4931148;29;20269;-90
2024/04/01 08:42:12;;;;;;;0.40;0.40;;;;;;;12.48;65.84;93671.25;4911530;29;20209;-88
2024/04/01 08:45:34;;;;;;;0.40;0.30;;;;;;;12.35;66.92;93698.13;4919377;29;20209;-90
2024/04/01 08:51:34;;;;;;;1.93;0.50;;;;;;;12.19;70.53;93825.28;4915685;29;20221;-90
2024/04/01 08:54:17;;;;;;;1.13;0.40;;;;;;;11.99;72.28;93874.69;4929130;29;20205;-88
2024/04/01 08:59:34;;;;;;;0.53;0.40;;;;;;;11.84;75.32;93931.88;4933045;29;20639;-90
2024/04/01 09:05:12;;;;;;;0.30;0.30;;;;;;;11.63;76.35;93947.88;4926785;29;20277;-90
2024/04/01 09:08:06;;;;;;;0.93;0.47;;;;;;;11.86;76.59;93978.88;4953542;29;20919;-89
2024/04/01 09:10:46;;;;;;;0.40;0.40;;;;;;;11.76;76.51;93973.47;4942831;28;20258;-89
2024/04/01 09:13:34;;;;;;;0.77;0.50;;;;;;;11.67;76.76;93978.16;4926316;29;20206;-89
2024/04/01 09:16:10;;;;;;;1.57;0.50;;;;;;;11.72;76.75;93983.44;4933791;29;20655;-90
2024/04/01 09:19:01;;;;;;;0.73;0.40;;;;;;;11.70;76.26;93979.50;4934920;29;20293;-90
2024/04/01 09:25:22;;;;;;;0.43;0.43;;;;;;;11.73;77.08;94021.09;4932537;29;20217;-90
2024/04/01 09:27:53;;;;;;;0.37;0.37;;;;;;;11.74;76.74;94017.47;4932167;29;20213;-90
2024/04/01 09:36:57;;;;;;;0.40;0.40;;;;;;;11.53;76.21;93992.25;4924725;29;20233;-90
2024/04/01 09:46:27;;;;;;;0.93;0.43;;;;;;;11.70;73.91;93964.03;4957497;23;20229;-89
2024/04/01 09:59:06;;;;;;;0.40;0.40;;;;;;;11.78;72.71;93945.66;4907070;29;20337;-90
2024/04/01 10:02:16;;;;;;;0.40;0.40;;;;;;;11.87;71.71;93923.72;4933834;29;20214;-89
2024/04/01 10:08:53;;;;;;;0.30;0.30;;;;;;;11.94;70.88;93910.69;4922807;29;20229;-90
2024/04/01 10:11:56;;;;;;;0.33;0.33;;;;;;;11.94;69.99;93879.72;4932455;29;20201;-91
2024/04/01 10:17:46;;;;;;;0.40;0.40;;;;;;;11.93;69.82;93880.78;4964223;23;20228;-90
2024/04/01 10:20:27;;;;;;;0.50;0.50;;;;;;;11.90;69.23;93863.16;4871826;29;20577;-90
2024/04/01 10:23:46;;;;;;;0.57;0.50;;;;;;;11.68;69.06;93847.47;4872563;29;20203;-90
2024/04/01 10:26:46;;;;;;;0.50;0.50;;;;;;;11.78;69.07;93847.69;4873019;29;20291;-92
2024/04/01 10:30:05;;;;;;;0.50;0.50;;;;;;;11.83;68.45;93834.91;4891963;29;20225;-90
2024/04/01 10:33:08;;;;;;;0.40;0.40;;;;;;;12.03;68.25;93830.16;4879547;29;20320;-91
2024/04/01 10:39:53;;;;;;;;;;;;;;;;;;;;;
2024/04/01 10:46:42;;;;;;;0.53;0.53;;;;;;;12.33;67.31;93845.44;4817509;29;20236;-91
2024/04/01 10:49:52;;;;;;;;;;;;;;;;;;;;;
2024/04/01 10:56:37;;;;;;;0.50;0.50;;;;;;;12.49;65.79;93801.88;4851033;29;20732;-89
2024/04/01 11:00:00;;;;;;;0.50;0.50;;;;;;;12.54;65.96;93807.09;4854682;29;20340;-91
2024/04/01 11:03:18;;;;;;;0.50;0.50;;;;;;;12.58;65.99;93798.66;4844543;29;20615;-91
2024/04/01 11:06:23;;;;;;;0.60;0.60;;;;;;;12.57;65.60;93794.50;4853747;29;20228;-90
2024/04/01 11:09:30;;;;;;;0.40;0.40;;;;;;;12.67;66.21;93822.31;4889744;29;20356;-90
2024/04/01 11:12:35;;;;;;;0.50;0.50;;;;;;;12.59;65.16;93783.94;4898237;29;20214;-90
2024/04/01 11:18:44;;;;;;;0.30;0.30;;;;;;;12.62;64.86;93768.78;4854374;29;20581;-91
2024/04/01 11:22:05;;;;;;;0.40;0.40;;;;;;;12.66;64.33;93733.75;4930040;29;20295;-90
2024/04/01 11:25:09;;;;;;;0.40;0.40;;;;;;;12.70;64.43;93739.97;4923147;29;20201;-91
2024/04/01 11:34:47;;;;;;;0.60;0.53;;;;;;;13.08;62.02;93648.09;4901119;29;20848;-91
2024/04/01 11:41:23;;;;;;;0.83;0.50;;;;;;;12.93;60.66;93593.63;4872585;29;20297;-91
2024/04/01 11:49:57;;;;;;;0.50;0.40;;;;;;;12.68;60.11;93552.78;4948322;28;20228;-90
2024/04/01 11:52:27;;;;;;;0.50;0.50;;;;;;;12.65;59.87;93532.59;4940869;28;20210;-89
2024/04/01 12:01:02;;;;;;;0.30;0.30;;;;;;;12.69;58.26;93487.22;4922195;29;20206;-89
2024/04/01 12:03:47;;;;;;;0.40;0.40;;;;;;;12.74;58.64;93492.44;4928897;29;20225;-89
2024/04/01 12:06:28;;;;;;;1.50;0.50;;;;;;;12.91;58.73;93489.78;4931639;29;20244;-90
2024/04/01 12:09:11;;;;;;;0.43;0.43;;;;;;;13.06;58.06;93484.78;4930551;29;20248;-90
2024/04/01 12:15:14;;;;;;;;;;;;;;;;;;;;;
2024/04/01 12:18:06;;;;;;;0.40;0.40;;;;;;;12.95;57.82;93478.72;4929706;29;20226;-90
2024/04/01 12:21:03;;;;;;;0.40;0.40;;;;;;;12.91;57.79;93500.09;4910985;29;20205;-90
2024/04/01 12:23:48;;;;;;;0.40;0.40;;;;;;;12.86;57.74;93489.75;4915718;29;20210;-89
2024/04/01 12:36:33;;;;;;;0.40;0.40;;;;;;;12.89;57.47;93478.94;4920570;29;20232;-91
2024/04/01 12:39:45;;;;;;;0.40;0.40;;;;;;;12.74;57.86;93503.53;4903451;29;20232;-92
2024/04/01 12:42:35;;;;;;;0.50;0.50;;;;;;;12.82;58.09;93527.38;4860018;29;20216;-91
2024/04/01 12:45:14;;;;;;;0.50;0.50;;;;;;;12.70;57.76;93522.34;4905519;29;20229;-91
2024/04/01 12:52:18;;;;;;;;;;;;;;;;;;;;;
2024/04/01 12:55:41;;;;;;;0.40;0.40;;;;;;;12.82;56.91;93498.97;4936708;29;20196;-92
2024/04/01 12:59:01;;;;;;;;;;;;;;;;;;;;;
2024/04/01 13:21:02;;;;;;;0.50;0.50;;;;;;;12.85;56.15;93486.38;4901395;29;20284;-89
2024/04/01 13:23:38;;;;;;;0.40;0.40;;;;;;;12.77;55.99;93487.56;4915750;29;20210;-90
2024/04/01 13:26:38;;;;;;;0.40;0.40;;;;;;;12.65;56.49;93499.84;4914878;29;20222;-88
2024/04/01 13:29:59;;;;;;;0.40;0.40;;;;;;;12.60;56.34;93512.66;4913052;29;20224;-89
2024/04/01 13:40:01;;;;;;;;;;;;;;;;;;;;;
2024/04/01 13:49:45;;;;;;;;;;;;;;;;;;;;;
2024/04/01 13:53:03;;;;;;;0.40;0.40;;;;;;;12.73;56.48;93552.84;4915970;29;20225;-90
2024/04/01 13:58:57;;;;;;;0.30;0.30;;;;;;;12.54;57.11;93583.31;4912603;29;20202;-89
2024/04/01 14:02:16;;;;;;;0.40;0.40;;;;;;;12.44;57.05;93580.59;4914110;29;20214;-90
2024/04/01 14:05:27;;;;;;;0.70;0.50;;;;;;;12.38;57.10;93590.06;4913992;29;20279;-90
2024/04/01 14:08:24;;;;;;;0.30;0.30;;;;;;;12.45;57.44;93598.44;4913843;29;20669;-90
2024/04/01 14:11:28;;;;;;;0.43;0.43;;;;;;;12.62;57.12;93619.06;4914696;29;20213;-90
2024/04/01 14:17:46;;;;;;;0.30;0.30;;;;;;;12.30;57.77;93623.22;4817347;29;20211;-90
2024/04/01 14:20:42;;;;;;;0.70;0.53;;;;;;;12.43;57.41;93621.09;4898235;29;20268;-89
2024/04/01 14:23:51;;;;;;;0.40;0.40;;;;;;;12.35;57.50;93616.31;4913016;29;20210;-90
2024/04/01 14:26:35;;;;;;;0.40;0.40;;;;;;;12.39;57.58;93625.16;4853649;29;20230;-91
2024/04/01 14:29:30;;;;;;;0.40;0.40;;;;;;;12.48;57.54;93635.09;4917458;29;20304;-90
2024/04/01 14:38:20;;;;;;;0.50;0.40;;;;;;;12.55;57.17;93620.22;4246695;26;20857;-90
2024/04/01 14:40:51;;;;;;;0.40;0.40;;;;;;;12.68;57.27;93636.19;4949654;28;20292;-90
2024/04/01 14:46:16;;;;;;;0.40;0.40;;;;;;;12.94;56.73;93633.94;4948993;28;20245;-89
2024/04/01 14:48:52;;;;;;;0.50;0.50;;;;;;;12.95;56.10;93592.38;4951366;28;20309;-90
2024/04/01 14:51:33;;;;;;;0.43;0.43;;;;;;;13.05;56.60;93597.66;4946954;28;20214;-89
2024/04/01 14:54:21;;;;;;;0.50;0.50;;;;;;;13.05;55.40;93556.34;4951539;28;20253;-90
2024/04/01 14:57:16;;;;;;;0.33;0.33;;;;;;;13.03;55.27;93540.28;4950600;28;20710;-89
2024/04/01 14:59:54;;;;;;;0.40;0.40;;;;;;;12.97;55.34;93550.81;4949857;28;20196;-90
2024/04/01 15:05:17;;;;;;;1.40;0.40;;;;;;;12.73;55.28;93519.28;4949470;28;20225;-89
2024/04/01 15:07:58;;;;;;;0.40;0.40;;;;;;;12.83;55.27;93539.28;4947285;28;20655;-89
2024/04/01 15:10:31;;;;;;;0.30;0.30;;;;;;;12.85;55.34;93529.50;4949883;28;20239;-89
2024/04/01 15:13:08;;;;;;;0.40;0.40;;;;;;;12.92;55.02;93540.41;4949726;28;20271;-89
2024/04/01 15:16:29;;;;;;;0.40;0.40;;;;;;;12.96;55.41;93544.06;4951311;28;20339;-89
2024/04/01 15:19:15;;;;;;;;;;;;;;;;;;;;;
2024/04/01 15:21:57;;;;;;;0.43;0.40;;;;;;;12.92;54.19;93481.78;4947305;28;20563;-89
2024/04/01 15:24:39;;;;;;;0.50;0.50;;;;;;;12.91;54.13;93487.19;4949827;28;20340;-89
2024/04/01 15:27:13;;;;;;;0.30;0.30;;;;;;;13.04;54.05;93479.09;4949165;28;20227;-89
2024/04/01 15:30:16;;;;;;;0.40;0.40;;;;;;;13.08;53.91;93478.34;4949039;28;20220;-90
2024/04/01 15:33:06;;;;;;;0.40;0.40;;;;;;;13.09;53.77;93487.66;4941073;28;20209;-89
2024/04/01 15:35:58;;;;;;;;;;;;;;;;;;;;;
2024/04/01 15:38:44;;;;;;;0.57;0.50;;;;;;;13.12;54.02;93448.41;4949150;28;20219;-90
2024/04/01 15:41:21;;;;;;;0.47;0.47;;;;;;;13.14;53.72;93443.78;4950816;28;20554;-90
2024/04/01 15:44:09;;;;;;;0.30;0.30;;;;;;;13.04;53.34;93441.13;4948650;28;20287;-91
2024/04/01 15:53:37;;;;;;;0.53;0.40;;;;;;;12.94;53.69;93476.38;4939271;28;20679;-90
2024/04/01 15:56:17;;;;;;;0.60;0.50;;;;;;;12.95;53.39;93463.22;4948988;28;20221;-90
2024/04/01 15:59:06;;;;;;;0.60;0.60;;;;;;;12.97;53.76;93471.50;4949297;28;20196;-90
2024/04/01 16:02:17;;;;;;;0.53;0.53;;;;;;;13.07;53.63;93481.19;4948267;28;20292;-91
2024/04/01 16:12:06;;;;;;;;;;;;;;;;;;;;;
2024/04/01 16:18:47;;;;;;;0.50;0.50;;;;;;;12.69;53.24;93464.00;4903721;29;20202;-90
2024/04/01 16:21:53;;;;;;;0.40;0.40;;;;;;;12.84;53.32;93455.63;4933136;29;20610;-90
2024/04/01 16:34:14;;;;;;;0.60;0.50;;;;;;;12.74;53.65;93503.53;4931604;29;20286;-90
2024/04/01 16:37:12;;;;;;;0.50;0.50;;;;;;;12.65;54.17;93559.22;4888266;29;20241;-91